createdAt,value
2022-08-14T00:01:24.186Z,0.40
2022-08-14T00:04:35.061Z,0.40
2022-08-14T00:07:21.045Z,0.40
2022-08-14T00:10:51.778Z,0.50
2022-08-14T00:13:31.055Z,0.52
2022-08-14T00:16:41.536Z,0.30
2022-08-14T00:19:27.725Z,0.30
2022-08-14T00:22:44.371Z,0.30
2022-08-14T00:25:41.766Z,0.22
2022-08-14T00:28:32.757Z,0.40
2022-08-14T00:31:35.274Z,0.20
2022-08-14T00:34:37.818Z,0.30
2022-08-14T00:37:34.883Z,0.30
2022-08-14T00:40:33.641Z,0.20
2022-08-14T00:43:24.384Z,0.43
2022-08-14T00:46:32.255Z,0.32
2022-08-14T00:49:21.300Z,0.20
2022-08-14T00:52:13.899Z,0.30
2022-08-14T00:55:03.528Z,0.17
2022-08-14T00:58:11.508Z,0.20
2022-08-14T01:01:11.632Z,0.40
2022-08-14T01:04:05.715Z,0.20
2022-08-14T01:06:55.153Z,0.10
2022-08-14T01:09:44.034Z,0.20
2022-08-14T01:12:33.804Z,0.30
2022-08-14T01:15:31.693Z,0.20
2022-08-14T01:19:02.275Z,0.30
2022-08-14T01:21:53.171Z,0.30
2022-08-14T01:24:43.539Z,0.30
2022-08-14T01:27:32.237Z,0.05
2022-08-14T01:30:41.936Z,0.10
2022-08-14T01:33:31.123Z,0.10
2022-08-14T01:36:39.833Z,0.10
2022-08-14T01:39:28.579Z,0.10
2022-08-14T01:42:31.088Z,0.10
2022-08-14T01:45:25.417Z,0.10
2022-08-14T01:48:14.640Z,0.10
2022-08-14T01:51:03.131Z,0.10
2022-08-14T01:53:59.102Z,0.10
2022-08-14T01:56:47.595Z,0.10
2022-08-14T01:59:44.740Z,0.10
2022-08-14T02:02:36.784Z,0.10
2022-08-14T02:05:38.028Z,0.10
2022-08-14T02:08:35.126Z,0.10
2022-08-14T02:11:25.888Z,0.10
2022-08-14T02:14:14.662Z,0.00
2022-08-14T02:17:23.226Z,0.10
2022-08-14T02:20:12.294Z,0.40
2022-08-14T02:23:01.370Z,0.30
2022-08-14T02:25:54.630Z,0.10
2022-08-14T02:28:57.941Z,0.20
2022-08-14T02:31:52.471Z,0.30
2022-08-14T02:34:41.411Z,0.20
2022-08-14T02:37:47.158Z,0.20
2022-08-14T02:40:38.009Z,0.30
2022-08-14T02:43:37.384Z,0.30
2022-08-14T02:46:41.221Z,0.30
2022-08-14T02:49:34.191Z,0.20
2022-08-14T02:52:55.457Z,0.40
2022-08-14T02:55:33.096Z,0.30
2022-08-14T02:58:29.234Z,0.20
2022-08-14T03:01:24.016Z,0.20
2022-08-14T03:04:15.226Z,0.40
2022-08-14T03:07:08.225Z,0.30
2022-08-14T03:10:25.612Z,0.40
2022-08-14T03:13:06.209Z,0.30
2022-08-14T03:16:09.013Z,0.20
2022-08-14T03:19:00.594Z,0.25
2022-08-14T03:21:52.997Z,0.25
2022-08-14T03:24:41.289Z,0.20
2022-08-14T03:27:35.491Z,0.10
2022-08-14T03:30:40.990Z,0.20
2022-08-14T03:33:37.853Z,0.40
2022-08-14T03:37:37.814Z,0.38
2022-08-14T03:39:40.269Z,0.10
2022-08-14T03:42:35.674Z,0.10
2022-08-14T03:45:35.136Z,0.20
2022-08-14T03:48:30.633Z,0.20
2022-08-14T03:51:19.641Z,0.15
2022-08-14T03:54:08.753Z,0.10
2022-08-14T03:57:04.908Z,0.25
2022-08-14T03:59:53.428Z,0.10
2022-08-14T04:02:47.621Z,0.20
2022-08-14T04:05:48.467Z,0.20
2022-08-14T04:08:41.897Z,0.20
2022-08-14T04:11:30.517Z,0.20
2022-08-14T04:14:18.627Z,0.30
2022-08-14T04:17:10.240Z,0.20
2022-08-14T04:20:03.940Z,0.30
2022-08-14T04:22:55.611Z,0.28
2022-08-14T04:25:44.057Z,0.30
2022-08-14T04:29:01.879Z,0.35
2022-08-14T04:33:01.131Z,0.10
2022-08-14T04:34:52.195Z,0.30
2022-08-14T04:37:58.567Z,0.52
2022-08-14T04:41:05.538Z,0.20
2022-08-14T04:43:53.661Z,0.20
2022-08-14T04:47:01.793Z,0.28
2022-08-14T04:49:57.611Z,0.30
2022-08-14T04:52:54.014Z,0.40
2022-08-14T04:55:51.652Z,0.45
2022-08-14T04:58:42.564Z,0.40
2022-08-14T05:01:40.271Z,0.30
2022-08-14T05:04:28.510Z,0.40
2022-08-14T05:07:16.646Z,0.50
2022-08-14T05:10:12.651Z,0.30
2022-08-14T05:13:13.212Z,0.80
2022-08-14T05:16:03.865Z,0.40
2022-08-14T05:19:18.182Z,0.50
2022-08-14T05:22:17.053Z,0.22
2022-08-14T05:25:06.481Z,0.52
2022-08-14T05:28:00.131Z,0.30
2022-08-14T05:30:53.828Z,0.30
2022-08-14T05:33:42.277Z,0.50
2022-08-14T05:36:42.890Z,0.50
2022-08-14T05:39:41.452Z,0.60
2022-08-14T05:42:33.978Z,0.30
2022-08-14T05:45:22.767Z,0.50
2022-08-14T05:48:33.126Z,0.40
2022-08-14T05:51:26.817Z,0.50
2022-08-14T05:54:27.040Z,0.43
2022-08-14T05:57:15.607Z,0.30
2022-08-14T06:00:04.622Z,0.50
2022-08-14T06:02:56.254Z,0.40
2022-08-14T06:05:47.833Z,0.30
2022-08-14T06:08:41.751Z,0.30
2022-08-14T06:11:31.364Z,0.40
2022-08-14T06:14:24.086Z,0.30
2022-08-14T06:17:25.957Z,0.30
2022-08-14T06:20:15.121Z,0.20
2022-08-14T06:23:03.739Z,0.20
2022-08-14T06:25:53.367Z,0.17
2022-08-14T06:28:41.619Z,0.80
2022-08-14T06:31:33.786Z,0.57
2022-08-14T06:35:02.806Z,0.30
2022-08-14T06:37:47.648Z,0.30
2022-08-14T06:40:40.321Z,0.35
2022-08-14T06:43:32.487Z,1.48
2022-08-14T06:46:32.283Z,0.20
2022-08-14T06:49:25.518Z,0.40
2022-08-14T06:52:15.222Z,0.25
2022-08-14T06:55:06.696Z,0.10
2022-08-14T06:57:57.832Z,0.40
2022-08-14T07:01:24.789Z,0.10
2022-08-14T07:04:34.170Z,0.10
2022-08-14T07:07:22.655Z,0.10
2022-08-14T07:10:16.744Z,0.10
2022-08-14T07:13:06.369Z,0.32
2022-08-14T07:15:58.497Z,0.10
2022-08-14T07:18:50.861Z,0.90
2022-08-14T07:21:39.714Z,0.10
2022-08-14T07:24:31.454Z,0.13
2022-08-14T07:27:20.292Z,0.10
2022-08-14T07:30:33.727Z,0.10
2022-08-14T07:33:24.616Z,0.75
2022-08-14T07:36:29.930Z,0.10
2022-08-14T07:39:18.806Z,0.00
2022-08-14T07:42:16.484Z,0.10
2022-08-14T07:45:12.508Z,0.10
2022-08-14T07:48:01.210Z,0.10
2022-08-14T07:50:50.760Z,0.82
2022-08-14T07:53:41.139Z,0.47
2022-08-14T07:56:47.539Z,0.40
2022-08-14T07:59:41.904Z,0.10
2022-08-14T08:02:32.583Z,0.10
2022-08-14T08:05:24.388Z,0.30
2022-08-14T08:08:27.345Z,0.05
2022-08-14T08:11:16.421Z,0.40
2022-08-14T08:14:10.688Z,0.17
2022-08-14T08:17:06.441Z,0.45
2022-08-14T08:19:57.344Z,0.10
2022-08-14T08:22:48.413Z,0.10
2022-08-14T08:25:42.934Z,0.00
2022-08-14T08:28:31.545Z,0.00
2022-08-14T08:31:23.072Z,0.20
2022-08-14T08:34:23.705Z,0.10
2022-08-14T08:37:14.215Z,0.10
2022-08-14T08:40:04.317Z,0.20
2022-08-14T08:42:54.589Z,0.17
2022-08-14T08:46:03.161Z,0.10
2022-08-14T08:51:44.156Z,0.00
2022-08-14T08:54:36.134Z,0.20
2022-08-14T08:57:24.397Z,0.10
2022-08-14T09:00:24.371Z,0.10
2022-08-14T09:03:20.644Z,0.30
2022-08-14T09:06:53.560Z,0.10
2022-08-14T09:09:30.528Z,0.20
2022-08-14T09:12:22.407Z,0.20
2022-08-14T09:15:12.797Z,0.20
2022-08-14T09:18:01.325Z,0.10
2022-08-14T09:20:54.675Z,0.10
2022-08-14T09:24:29.009Z,0.10
2022-08-14T09:26:55.084Z,0.00
2022-08-14T09:29:43.581Z,0.10
2022-08-14T09:33:11.225Z,0.45
2022-08-14T09:36:22.089Z,0.13
2022-08-14T09:39:57.835Z,0.15
2022-08-14T09:43:15.137Z,0.10
2022-08-14T09:46:11.097Z,0.10
2022-08-14T09:49:16.545Z,0.17
2022-08-14T09:52:33.185Z,0.20
2022-08-14T09:55:24.137Z,0.05
2022-08-14T09:58:23.119Z,0.10
2022-08-14T10:01:20.185Z,0.68
2022-08-14T10:04:33.550Z,0.10
2022-08-14T10:07:53.426Z,0.10
2022-08-14T10:10:42.415Z,0.32
2022-08-14T10:13:43.312Z,0.20
2022-08-14T10:16:47.966Z,0.30
2022-08-14T10:19:48.564Z,0.32
2022-08-14T10:23:13.597Z,0.20
2022-08-14T10:25:51.304Z,0.20
2022-08-14T10:29:17.739Z,0.47
2022-08-14T10:32:00.288Z,0.40
2022-08-14T10:34:52.598Z,0.30
2022-08-14T10:37:49.568Z,0.30
2022-08-14T10:40:44.523Z,0.10
2022-08-14T10:43:43.284Z,0.00
2022-08-14T10:47:40.288Z,0.10
2022-08-14T10:50:01.577Z,0.10
2022-08-14T10:52:59.790Z,0.10
2022-08-14T10:55:59.671Z,0.00
2022-08-14T10:59:06.881Z,0.70
2022-08-14T11:01:59.865Z,0.35
2022-08-14T11:05:18.144Z,0.20
2022-08-14T11:08:09.186Z,0.30
2022-08-14T11:11:05.482Z,0.20
2022-08-14T11:13:57.454Z,0.20
2022-08-14T11:16:53.376Z,0.30
2022-08-14T11:19:42.055Z,0.10
2022-08-14T11:22:56.391Z,0.20
2022-08-14T11:25:52.985Z,0.30
2022-08-14T11:28:47.482Z,0.28
2022-08-14T11:31:51.824Z,0.30
2022-08-14T11:34:41.966Z,0.45
2022-08-14T11:37:40.330Z,0.20
2022-08-14T11:40:35.314Z,0.30
2022-08-14T11:43:29.493Z,0.20
2022-08-14T11:46:30.528Z,0.10
2022-08-14T11:49:34.847Z,0.20
2022-08-14T11:52:34.920Z,0.20
2022-08-14T11:55:39.079Z,0.17
2022-08-14T11:58:35.406Z,0.20
2022-08-14T12:01:31.245Z,0.20
2022-08-14T12:04:21.672Z,0.40
2022-08-14T12:07:21.058Z,0.20
2022-08-14T12:10:25.678Z,0.35
2022-08-14T12:13:19.163Z,0.20
2022-08-14T12:16:20.974Z,0.22
2022-08-14T12:19:10.961Z,0.22
2022-08-14T12:21:59.155Z,0.52
2022-08-14T12:24:50.562Z,0.30
2022-08-14T12:27:59.396Z,0.20
2022-08-14T12:30:53.587Z,0.30
2022-08-14T12:34:00.748Z,0.88
2022-08-14T12:36:49.314Z,0.40
2022-08-14T12:39:40.409Z,0.70
2022-08-14T12:42:40.700Z,0.60
2022-08-14T12:45:36.692Z,0.32
2022-08-14T12:48:32.376Z,0.40
2022-08-14T12:51:27.345Z,0.43
2022-08-14T12:54:28.419Z,0.40
2022-08-14T12:57:20.408Z,0.50
2022-08-14T13:00:22.512Z,0.40
2022-08-14T13:03:27.154Z,0.93
2022-08-14T13:06:16.383Z,1.50
2022-08-14T13:09:07.873Z,0.60
2022-08-14T13:12:32.064Z,1.52
2022-08-14T13:15:17.784Z,1.10
2022-08-14T13:18:11.360Z,1.15
2022-08-14T13:21:02.122Z,0.70
2022-08-14T13:23:50.880Z,0.70
2022-08-14T13:26:51.825Z,0.70
2022-08-14T13:29:46.762Z,1.08
2022-08-14T13:32:37.594Z,0.75
2022-08-14T13:35:27.042Z,0.77
2022-08-14T13:38:22.987Z,0.88
2022-08-14T13:41:12.123Z,0.60
2022-08-14T13:44:00.916Z,1.10
2022-08-14T13:46:49.563Z,0.93
2022-08-14T13:49:40.327Z,1.00
2022-08-14T13:52:54.810Z,1.35
2022-08-14T13:55:52.086Z,0.40
2022-08-14T13:58:46.843Z,0.43
2022-08-14T14:01:42.799Z,0.60
2022-08-14T14:04:33.345Z,0.88
2022-08-14T14:07:23.578Z,0.50
2022-08-14T14:10:13.484Z,0.35
2022-08-14T14:13:04.432Z,0.88
2022-08-14T14:15:58.254Z,0.88
2022-08-14T14:18:52.318Z,1.00
2022-08-14T14:21:41.969Z,1.25
2022-08-14T14:24:34.679Z,0.80
2022-08-14T14:27:40.500Z,1.02
2022-08-14T14:30:53.521Z,0.75
2022-08-14T14:33:48.692Z,1.10
2022-08-14T14:36:39.031Z,0.80
2022-08-14T14:39:29.504Z,0.80
2022-08-14T14:42:27.844Z,0.60
2022-08-14T14:45:23.542Z,0.60
2022-08-14T14:48:13.289Z,0.70
2022-08-14T14:51:04.345Z,0.90
2022-08-14T14:53:53.788Z,0.60
2022-08-14T14:56:47.511Z,0.65
2022-08-14T14:59:39.863Z,0.80
2022-08-14T15:02:42.229Z,0.80
2022-08-14T15:05:30.610Z,1.23
2022-08-14T15:08:26.311Z,0.47
2022-08-14T15:11:15.474Z,0.80
2022-08-14T15:14:54.017Z,0.13
2022-08-14T15:17:13.361Z,0.00
2022-08-14T15:20:16.982Z,0.10
2022-08-14T15:23:11.774Z,0.10
2022-08-14T15:26:01.288Z,0.00
2022-08-14T15:28:49.812Z,0.00
2022-08-14T15:31:51.561Z,0.00
2022-08-14T15:34:51.326Z,0.00
2022-08-14T15:37:42.461Z,0.10
2022-08-14T15:40:31.072Z,0.10
2022-08-14T15:43:19.660Z,0.20
2022-08-14T15:46:41.276Z,0.15
2022-08-14T15:49:19.970Z,0.10
2022-08-14T15:52:09.961Z,0.10
2022-08-14T15:54:59.759Z,0.30
2022-08-14T15:58:01.855Z,0.30
2022-08-14T16:01:12.582Z,0.20
2022-08-14T16:04:01.065Z,0.25
2022-08-14T16:06:54.644Z,0.30
2022-08-14T16:09:44.296Z,0.05
2022-08-14T16:12:46.182Z,0.10
2022-08-14T16:15:39.322Z,0.00
2022-08-14T16:18:42.238Z,0.17
2022-08-14T16:21:31.690Z,0.10
2022-08-14T16:24:27.874Z,0.20
2022-08-14T16:27:21.977Z,0.10
2022-08-14T16:30:27.621Z,0.00
2022-08-14T16:33:56.458Z,0.00
2022-08-14T16:36:30.449Z,0.03
2022-08-14T16:39:20.170Z,0.10
2022-08-14T16:43:03.265Z,0.10
2022-08-14T16:45:27.324Z,0.00
2022-08-14T16:48:54.940Z,0.10
2022-08-14T16:51:24.092Z,0.10
2022-08-14T16:54:20.649Z,0.10
2022-08-14T16:57:27.779Z,0.10
2022-08-14T17:00:33.020Z,0.10
2022-08-14T17:03:36.902Z,0.00
2022-08-14T17:06:47.967Z,0.20
2022-08-14T17:09:54.809Z,0.00
2022-08-14T17:12:43.414Z,0.00
2022-08-14T17:15:33.048Z,0.10
2022-08-14T17:18:47.114Z,0.20
2022-08-14T17:21:47.578Z,0.10
2022-08-14T17:24:55.737Z,0.05
2022-08-14T17:27:48.197Z,0.10
2022-08-14T17:30:59.113Z,0.10
2022-08-14T17:33:53.442Z,0.17
2022-08-14T17:36:47.829Z,0.10
2022-08-14T17:39:39.937Z,0.20
2022-08-14T17:43:01.763Z,0.10
2022-08-14T17:45:51.076Z,0.35
2022-08-14T17:49:14.570Z,0.10
2022-08-14T17:52:17.276Z,0.00
2022-08-14T17:56:01.983Z,0.20
2022-08-14T17:58:27.110Z,0.30
2022-08-14T18:01:23.492Z,0.40
2022-08-14T18:04:27.750Z,0.20
2022-08-14T18:07:59.287Z,0.77
2022-08-14T18:10:51.735Z,0.20
2022-08-14T18:13:51.169Z,0.60
2022-08-14T18:16:43.265Z,0.30
2022-08-14T18:19:38.329Z,0.32
2022-08-14T18:22:39.353Z,0.50
2022-08-14T18:25:34.374Z,0.40
2022-08-14T18:28:48.476Z,0.40
2022-08-14T18:31:42.030Z,0.32
2022-08-14T18:34:38.258Z,0.60
2022-08-14T18:37:41.003Z,0.38
2022-08-14T18:40:35.145Z,0.20
2022-08-14T18:43:59.265Z,0.20
2022-08-14T18:47:14.779Z,0.38
2022-08-14T18:50:27.254Z,0.25
2022-08-14T18:53:20.412Z,0.20
2022-08-14T18:56:13.596Z,0.40
2022-08-14T18:59:42.392Z,0.17
2022-08-14T19:02:31.863Z,0.30
2022-08-14T19:05:40.927Z,0.10
2022-08-14T19:08:50.052Z,0.20
2022-08-14T19:11:38.603Z,0.43
2022-08-14T19:14:48.994Z,0.20
2022-08-14T19:18:13.864Z,0.20
2022-08-14T19:21:13.023Z,0.20
2022-08-14T19:24:34.029Z,0.03
2022-08-14T19:27:26.440Z,0.25
2022-08-14T19:30:27.837Z,0.40
2022-08-14T19:33:53.818Z,0.25
2022-08-14T19:37:05.257Z,0.10
2022-08-14T19:40:15.138Z,0.50
2022-08-14T19:43:06.692Z,0.60
2022-08-14T19:45:58.883Z,0.60
2022-08-14T19:48:56.735Z,0.22
2022-08-14T19:51:49.240Z,0.40
2022-08-14T19:54:37.967Z,0.63
2022-08-14T19:57:31.492Z,0.52
2022-08-14T20:00:29.406Z,0.30
2022-08-14T20:03:23.180Z,1.08
2022-08-14T20:06:13.036Z,0.43
2022-08-14T20:11:03.515Z,0.82
2022-08-14T20:12:29.161Z,0.75
2022-08-14T20:15:47.369Z,0.38
2022-08-14T20:18:49.111Z,0.50
2022-08-14T20:21:57.936Z,0.30
2022-08-14T20:24:50.001Z,0.30
2022-08-14T20:27:44.421Z,0.68
2022-08-14T20:30:35.939Z,0.30
2022-08-14T20:33:25.362Z,0.63
2022-08-14T20:36:26.017Z,0.68
2022-08-14T20:39:21.127Z,0.60
2022-08-14T20:42:34.601Z,1.20
2022-08-14T20:45:23.815Z,0.90
2022-08-14T20:48:18.360Z,1.00
2022-08-14T20:51:58.927Z,0.70
2022-08-14T20:54:51.448Z,0.50
2022-08-14T20:57:43.806Z,0.50
2022-08-14T21:01:00.704Z,0.50
2022-08-14T21:03:52.844Z,0.80
2022-08-14T21:07:22.678Z,0.40
2022-08-14T21:10:33.383Z,0.40
2022-08-14T21:14:08.623Z,0.50
2022-08-14T21:16:35.815Z,0.90
2022-08-14T21:19:27.852Z,0.80
2022-08-14T21:22:16.960Z,1.08
2022-08-14T21:25:10.549Z,0.90
2022-08-14T21:28:04.900Z,0.73
2022-08-14T21:30:55.167Z,0.50
2022-08-14T21:33:43.598Z,1.42
2022-08-14T21:36:33.140Z,0.70
2022-08-14T21:39:24.180Z,1.00
2022-08-14T21:42:13.736Z,0.60
2022-08-14T21:45:08.478Z,0.90
2022-08-14T21:47:56.949Z,0.80
2022-08-14T21:51:00.984Z,1.30
2022-08-14T21:54:06.015Z,0.85
2022-08-14T21:57:17.391Z,1.30
2022-08-14T22:00:35.923Z,0.20
2022-08-14T22:03:24.140Z,0.10
2022-08-14T22:06:12.877Z,0.30
2022-08-14T22:09:10.818Z,0.20
2022-08-14T22:11:59.283Z,1.30
2022-08-14T22:14:49.166Z,0.60
2022-08-14T22:17:39.820Z,0.68
2022-08-14T22:20:33.904Z,0.75
2022-08-14T22:23:23.985Z,0.70
2022-08-14T22:26:12.671Z,0.60
2022-08-14T22:29:11.101Z,0.52
2022-08-14T22:31:59.970Z,0.50
2022-08-14T22:34:48.647Z,0.50
2022-08-14T22:37:44.191Z,0.50
2022-08-14T22:41:00.279Z,0.50
2022-08-14T22:43:42.331Z,0.60
2022-08-14T22:46:31.371Z,1.00
2022-08-14T22:50:32.023Z,0.75
2022-08-14T22:52:33.638Z,0.80
2022-08-14T22:55:27.458Z,0.60
2022-08-14T22:58:17.212Z,0.60
2022-08-14T23:01:11.937Z,0.50
2022-08-14T23:04:01.517Z,0.70
2022-08-14T23:07:03.146Z,0.60
2022-08-14T23:10:33.099Z,0.70
2022-08-14T23:13:15.077Z,0.60
2022-08-14T23:16:06.327Z,0.90
2022-08-14T23:18:54.816Z,0.60
2022-08-14T23:21:46.434Z,0.50
2022-08-14T23:24:36.230Z,0.77
2022-08-14T23:28:03.165Z,0.70
2022-08-14T23:30:41.609Z,0.63
2022-08-14T23:33:42.046Z,0.77
2022-08-14T23:36:53.376Z,0.80
2022-08-14T23:39:44.816Z,0.80
2022-08-14T23:42:39.968Z,1.00
2022-08-14T23:45:46.136Z,0.70
2022-08-14T23:48:34.798Z,0.68
2022-08-14T23:51:25.391Z,0.90
2022-08-14T23:54:49.116Z,0.90
2022-08-14T23:57:34.001Z,1.08
